PAOT Airport (Ralph Wien Memorial) Information

FAA: OTZ - ICAO: PAOT

PAOT Airport Location

State Alaska
County Northwest Arctic
City Kotzebue
PAOT Airport is 1 miles south of Kotzebue, AK.
Latitude 66-53-05.3000N
Longitude 162-35-53.3000W
Elevation 15ft

PAOT Airport METARs

METAR PAOT 200253Z 11026KT 10SM OVC100 M01/M05 A2910 RMK AO2 PK WND 12032/0249 SLP856 T10111050 56013
Altimeter 29.10"
Temperature -1.1°C (30.0°F)
Wind 110° at 26KT
Clouds overcast at 10,000ft
Visibility 10.0mi
Time observed: 2021-10-20T02:53:00Z

PAOT Airport Details

Status Operational
Activation September 1947
Ownership Public
Usage Public
Chart NOME
ATC on-site No
Beacon schedule sunset-sunrise
Beacon color clear green

PAOT Airport Contacts

Owner ALASKA DOT&PF NORTHERN REGION
Owner address 2301 PEGER RD, FAIRBANKS, AK 99701
Owner phone 907-451-5250
Manager JOSEPH CLOUD
Manager address P.O. BOX 7066, NIKISHKA, AK 99635
Manager phone 907-776-8660

PAOT Airport (Ralph Wien Memorial) Radio Frequencies

PAOT (Airport) Radio Frequencies

UNICOM 122.8
Common traffic advisory frequency (CTAF) 123.6